Time;durP1;ratioP1;P1;durP2;ratioP2;P2;SDS_P1;SDS_P2;PMS_P1;PMS_P2;Temp;Humidity;BMP_temperature;BMP_pressure;BME280_temperature;BME280_humidity;BME280_pressure;Samples;Min_cycle;Max_cycle;Signal;HPM_P1;HPM_P2
2023/08/18 00:00:47;;;;;;;;;;;24.60;99.90;;;;;;4595484;19;19911;-61
2023/08/18 00:02:39;;;;;;;;;;;24.60;99.90;;;;;;4594459;19;20244;-61
2023/08/18 00:04:11;;;;;;;;;;;24.60;99.90;;;;;;4595537;19;19952;-61
2023/08/18 00:05:43;;;;;;;;;;;24.60;99.90;;;;;;4595553;19;19914;-61
2023/08/18 00:07:15;;;;;;;;;;;24.50;99.90;;;;;;4595417;19;19926;-61
2023/08/18 00:08:46;;;;;;;;;;;24.50;99.90;;;;;;4595461;19;19911;-61
2023/08/18 00:10:19;;;;;;;;;;;24.50;99.90;;;;;;4594127;19;19918;-61
2023/08/18 00:11:50;;;;;;;;;;;24.50;99.90;;;;;;4592674;19;19974;-62
2023/08/18 00:13:21;;;;;;;;;;;24.50;99.90;;;;;;4594840;19;19925;-62
2023/08/18 00:14:53;;;;;;;;;;;24.50;99.90;;;;;;4595397;19;19919;-61
2023/08/18 00:16:25;;;;;;;;;;;24.50;99.90;;;;;;4595255;19;20000;-61
2023/08/18 00:17:56;;;;;;;;;;;24.50;99.90;;;;;;4593628;19;19939;-62
2023/08/18 00:19:27;;;;;;;;;;;24.40;99.90;;;;;;4594765;19;19940;-61
2023/08/18 00:20:59;;;;;;;;;;;24.50;99.90;;;;;;4595156;19;19932;-61
2023/08/18 00:22:31;;;;;;;;;;;24.50;99.90;;;;;;4593997;19;20278;-61
2023/08/18 00:24:03;;;;;;;;;;;24.40;99.90;;;;;;4595175;19;20232;-61
2023/08/18 00:25:34;;;;;;;;;;;24.40;99.90;;;;;;4595008;19;19935;-61
2023/08/18 00:27:05;;;;;;;;;;;24.50;99.90;;;;;;4595116;19;19933;-61
2023/08/18 00:28:37;;;;;;;;;;;24.50;99.90;;;;;;4595000;19;19970;-61
2023/08/18 00:30:10;;;;;;;;;;;24.50;99.90;;;;;;4594886;19;19946;-61
2023/08/18 00:31:41;;;;;;;;;;;24.50;99.90;;;;;;4593453;19;19921;-62
2023/08/18 00:33:17;;;;;;;;;;;24.50;99.90;;;;;;4593470;19;19986;-61
2023/08/18 00:34:48;;;;;;;;;;;24.50;99.90;;;;;;4594807;19;19914;-61
2023/08/18 00:36:20;;;;;;;;;;;24.40;99.90;;;;;;4594775;19;20320;-61
2023/08/18 00:37:51;;;;;;;;;;;24.40;99.90;;;;;;4594815;19;19918;-61
2023/08/18 00:39:23;;;;;;;;;;;24.40;99.90;;;;;;4594691;19;19966;-61
2023/08/18 00:40:55;;;;;;;;;;;24.50;99.90;;;;;;4594665;19;20230;-64
2023/08/18 00:42:28;;;;;;;;;;;24.40;99.90;;;;;;4593708;19;19932;-61
2023/08/18 00:44:01;;;;;;;;;;;24.40;99.90;;;;;;4594564;19;19932;-61
2023/08/18 00:45:32;;;;;;;;;;;24.40;99.90;;;;;;4594613;19;19974;-61
2023/08/18 00:47:03;;;;;;;;;;;24.40;99.90;;;;;;4594584;19;20251;-61
2023/08/18 00:48:36;;;;;;;;;;;24.40;99.90;;;;;;4594543;19;19923;-61
2023/08/18 00:50:07;;;;;;;;;;;24.40;99.90;;;;;;4594433;19;19918;-61
2023/08/18 00:51:39;;;;;;;;;;;24.40;99.90;;;;;;4593438;19;19914;-61
2023/08/18 00:53:11;;;;;;;;;;;24.40;99.90;;;;;;4594296;19;19925;-61
2023/08/18 00:54:42;;;;;;;;;;;24.40;99.90;;;;;;4593098;19;19927;-61
2023/08/18 00:56:13;;;;;;;;;;;24.40;99.90;;;;;;4593929;19;20224;-62
2023/08/18 00:57:46;;;;;;;;;;;24.40;99.90;;;;;;4594464;19;20007;-61
2023/08/18 00:59:17;;;;;;;;;;;24.40;99.90;;;;;;4594269;19;19922;-61
2023/08/18 01:00:49;;;;;;;;;;;24.40;99.90;;;;;;4594316;19;19915;-62
2023/08/18 01:02:21;;;;;;;;;;;24.30;99.90;;;;;;4592053;19;19914;-62
2023/08/18 01:03:52;;;;;;;;;;;24.40;99.90;;;;;;4593957;19;20217;-61
2023/08/18 01:05:24;;;;;;;;;;;24.30;99.90;;;;;;4592879;19;19911;-61
2023/08/18 01:06:56;;;;;;;;;;;24.40;99.90;;;;;;4593802;19;19986;-62
2023/08/18 01:08:28;;;;;;;;;;;24.30;99.90;;;;;;4594102;19;19915;-61
2023/08/18 01:09:59;;;;;;;;;;;24.30;99.90;;;;;;4594193;19;19942;-61
2023/08/18 01:11:35;;;;;;;;;;;24.30;99.90;;;;;;4593350;19;20279;-61
2023/08/18 01:13:20;;;;;;;;;;;24.30;99.90;;;;;;4594055;19;19918;-61
2023/08/18 01:15:10;;;;;;;;;;;24.20;99.90;;;;;;4593931;19;19928;-62
2023/08/18 01:16:42;;;;;;;;;;;24.20;99.90;;;;;;4593991;19;19907;-61
2023/08/18 01:18:13;;;;;;;;;;;24.20;99.90;;;;;;4594279;19;19922;-61
2023/08/18 01:19:45;;;;;;;;;;;24.20;99.90;;;;;;4592663;19;19919;-61
2023/08/18 01:21:16;;;;;;;;;;;24.20;99.90;;;;;;4592544;19;19918;-62
2023/08/18 01:22:57;;;;;;;;;;;24.10;99.90;;;;;;4592372;19;20206;-61
2023/08/18 01:24:29;;;;;;;;;;;24.10;99.90;;;;;;4593854;19;19922;-61
2023/08/18 01:26:00;;;;;;;;;;;24.20;99.90;;;;;;4593880;19;19982;-61
2023/08/18 01:27:31;;;;;;;;;;;24.10;99.90;;;;;;4593826;19;19974;-61
2023/08/18 01:29:04;;;;;;;;;;;24.10;99.90;;;;;;4592935;19;19926;-61
2023/08/18 01:30:46;;;;;;;;;;;24.10;99.90;;;;;;4593736;19;19911;-61
2023/08/18 01:32:17;;;;;;;;;;;24.10;99.90;;;;;;4591858;19;19941;-61
2023/08/18 01:34:00;;;;;;;;;;;24.10;99.90;;;;;;4593231;19;20005;-61
2023/08/18 01:35:31;;;;;;;;;;;24.10;99.90;;;;;;4593714;19;19922;-61
2023/08/18 01:37:02;;;;;;;;;;;24.10;99.90;;;;;;4593623;19;19921;-62
2023/08/18 01:38:34;;;;;;;;;;;24.00;99.90;;;;;;4593550;19;19915;-61
2023/08/18 01:40:06;;;;;;;;;;;24.10;99.90;;;;;;4593488;19;19936;-62
2023/08/18 01:41:38;;;;;;;;;;;24.00;99.90;;;;;;4591865;19;19923;-62
2023/08/18 01:43:11;;;;;;;;;;;24.00;99.90;;;;;;4592048;19;20286;-61
2023/08/18 01:44:43;;;;;;;;;;;24.00;99.90;;;;;;4592979;19;20294;-61
2023/08/18 01:46:14;;;;;;;;;;;24.00;99.90;;;;;;4593322;19;19915;-62
2023/08/18 01:47:45;;;;;;;;;;;23.90;99.90;;;;;;4593277;19;19932;-62
2023/08/18 01:49:17;;;;;;;;;;;24.00;99.90;;;;;;4593255;19;19914;-61
2023/08/18 01:50:48;;;;;;;;;;;24.00;99.90;;;;;;4593336;19;19915;-61
2023/08/18 01:52:20;;;;;;;;;;;23.90;99.90;;;;;;4592581;19;19925;-62
2023/08/18 01:53:51;;;;;;;;;;;23.90;99.90;;;;;;4593253;19;19971;-62
2023/08/18 01:55:23;;;;;;;;;;;23.90;99.90;;;;;;4593199;19;19911;-61
2023/08/18 01:56:54;;;;;;;;;;;23.90;99.90;;;;;;4593023;19;20206;-61
2023/08/18 01:58:26;;;;;;;;;;;23.90;99.90;;;;;;4593312;19;19921;-61
2023/08/18 01:59:57;;;;;;;;;;;23.90;99.90;;;;;;4593102;19;19914;-61
2023/08/18 02:01:28;;;;;;;;;;;23.90;99.90;;;;;;4592980;19;19938;-61
2023/08/18 02:02:59;;;;;;;;;;;23.90;99.90;;;;;;4591903;19;20301;-61
2023/08/18 02:04:31;;;;;;;;;;;23.90;99.90;;;;;;4591768;19;19910;-61
2023/08/18 02:06:03;;;;;;;;;;;23.90;99.90;;;;;;4592468;19;19921;-60
2023/08/18 02:07:34;;;;;;;;;;;23.90;99.90;;;;;;4592809;19;19967;-61
2023/08/18 02:09:06;;;;;;;;;;;23.90;99.90;;;;;;4592958;19;19932;-62
2023/08/18 02:10:37;;;;;;;;;;;23.90;99.90;;;;;;4592841;19;19922;-61
2023/08/18 02:12:08;;;;;;;;;;;23.90;99.90;;;;;;4591659;19;20217;-61
2023/08/18 02:13:40;;;;;;;;;;;23.90;99.90;;;;;;4592661;19;19914;-61
2023/08/18 02:15:12;;;;;;;;;;;23.90;99.90;;;;;;4592795;19;19926;-61
2023/08/18 02:16:45;;;;;;;;;;;23.90;99.90;;;;;;4592760;19;19911;-61
2023/08/18 02:18:17;;;;;;;;;;;23.90;99.90;;;;;;4592707;19;20256;-61
2023/08/18 02:19:50;;;;;;;;;;;23.90;99.90;;;;;;4592667;19;19922;-61
2023/08/18 02:21:21;;;;;;;;;;;23.90;99.90;;;;;;4592709;19;19933;-61
2023/08/18 02:22:52;;;;;;;;;;;23.90;99.90;;;;;;4591578;19;20266;-61
2023/08/18 02:24:24;;;;;;;;;;;23.80;99.90;;;;;;4592867;19;19999;-61
2023/08/18 02:25:58;;;;;;;;;;;23.80;99.90;;;;;;4592589;19;19922;-61
2023/08/18 02:27:29;;;;;;;;;;;23.80;99.90;;;;;;4591194;19;19911;-61
2023/08/18 02:29:01;;;;;;;;;;;23.80;99.90;;;;;;4592012;19;19915;-61
2023/08/18 02:30:33;;;;;;;;;;;23.80;99.90;;;;;;4592510;19;19931;-61
2023/08/18 02:32:04;;;;;;;;;;;23.80;99.90;;;;;;4591115;19;20351;-61
2023/08/18 02:33:36;;;;;;;;;;;23.80;99.90;;;;;;4592534;19;19914;-61
2023/08/18 02:35:07;;;;;;;;;;;23.80;99.90;;;;;;4592500;19;19915;-61
2023/08/18 02:36:39;;;;;;;;;;;23.80;99.90;;;;;;4592253;19;19911;-61
2023/08/18 02:38:14;;;;;;;;;;;23.80;99.90;;;;;;4592326;19;19981;-61
2023/08/18 02:39:48;;;;;;;;;;;23.70;99.90;;;;;;4591431;19;19992;-61
2023/08/18 02:41:23;;;;;;;;;;;23.70;99.90;;;;;;4589990;19;19914;-61
2023/08/18 02:42:55;;;;;;;;;;;23.70;99.90;;;;;;4591269;19;20279;-61
2023/08/18 02:44:26;;;;;;;;;;;23.70;99.90;;;;;;4592366;19;19919;-61
2023/08/18 02:46:02;;;;;;;;;;;23.70;99.90;;;;;;4592377;19;19915;-61
2023/08/18 02:47:37;;;;;;;;;;;23.70;99.90;;;;;;4592311;19;20141;-61
2023/08/18 02:49:09;;;;;;;;;;;23.70;99.90;;;;;;4592107;19;19922;-61
2023/08/18 02:50:41;;;;;;;;;;;23.70;99.90;;;;;;4592107;19;19911;-61
2023/08/18 02:52:13;;;;;;;;;;;23.60;99.90;;;;;;4590836;19;20274;-61
2023/08/18 02:53:48;;;;;;;;;;;23.70;99.90;;;;;;4591964;19;19929;-61
2023/08/18 02:55:19;;;;;;;;;;;23.60;99.90;;;;;;4591987;19;20278;-61
2023/08/18 02:56:51;;;;;;;;;;;23.60;99.90;;;;;;4591977;19;19923;-61
2023/08/18 02:58:23;;;;;;;;;;;23.60;99.90;;;;;;4591928;19;19936;-61
2023/08/18 02:59:55;;;;;;;;;;;23.60;99.90;;;;;;4591948;19;19925;-61
2023/08/18 03:01:26;;;;;;;;;;;23.60;99.90;;;;;;4591863;19;19922;-61
2023/08/18 03:03:00;;;;;;;;;;;23.60;99.90;;;;;;4591016;19;20282;-61
2023/08/18 03:04:32;;;;;;;;;;;23.60;99.90;;;;;;4592012;19;19918;-61
2023/08/18 03:06:06;;;;;;;;;;;23.60;99.90;;;;;;4591843;19;19918;-61
2023/08/18 03:07:38;;;;;;;;;;;23.60;99.90;;;;;;4591975;19;19911;-61
2023/08/18 03:09:10;;;;;;;;;;;23.60;99.90;;;;;;4591916;19;19936;-61
2023/08/18 03:10:41;;;;;;;;;;;23.60;99.90;;;;;;4591901;19;19929;-61
2023/08/18 03:12:12;;;;;;;;;;;23.60;99.90;;;;;;4590648;19;19919;-61
2023/08/18 03:13:44;;;;;;;;;;;23.60;99.90;;;;;;4591886;19;19919;-60
2023/08/18 03:15:15;;;;;;;;;;;23.60;99.90;;;;;;4591782;19;19983;-61
2023/08/18 03:16:46;;;;;;;;;;;23.60;99.90;;;;;;4590420;19;19921;-61
2023/08/18 03:18:18;;;;;;;;;;;23.60;99.90;;;;;;4591185;19;19988;-62
2023/08/18 03:19:49;;;;;;;;;;;23.60;99.90;;;;;;4591595;19;19922;-61
2023/08/18 03:21:20;;;;;;;;;;;23.60;99.90;;;;;;4591739;19;20298;-61
2023/08/18 03:22:53;;;;;;;;;;;23.60;99.90;;;;;;4590361;19;19915;-61
2023/08/18 03:24:25;;;;;;;;;;;23.60;99.90;;;;;;4591482;19;20274;-65
2023/08/18 03:26:03;;;;;;;;;;;23.50;99.90;;;;;;4591607;19;19917;-61
2023/08/18 03:27:34;;;;;;;;;;;23.50;99.90;;;;;;4591572;19;19915;-61
2023/08/18 03:29:06;;;;;;;;;;;23.50;99.90;;;;;;4591498;19;19919;-60
2023/08/18 03:30:37;;;;;;;;;;;23.50;99.90;;;;;;4591383;19;20220;-61
2023/08/18 03:32:09;;;;;;;;;;;23.50;99.90;;;;;;4589937;19;20300;-60
2023/08/18 03:33:41;;;;;;;;;;;23.50;99.90;;;;;;4591386;19;20298;-60
2023/08/18 03:35:12;;;;;;;;;;;23.50;99.90;;;;;;4591513;19;19936;-60
2023/08/18 03:36:43;;;;;;;;;;;23.50;99.90;;;;;;4591374;19;19919;-61
2023/08/18 03:38:15;;;;;;;;;;;23.50;99.90;;;;;;4591408;19;19923;-60
2023/08/18 03:39:46;;;;;;;;;;;23.50;99.90;;;;;;4591258;19;19940;-61
2023/08/18 03:41:17;;;;;;;;;;;23.50;99.90;;;;;;4591488;19;19919;-61
2023/08/18 03:42:49;;;;;;;;;;;23.50;99.90;;;;;;4588760;19;20372;-61
2023/08/18 03:44:20;;;;;;;;;;;23.50;99.90;;;;;;4588263;19;19996;-61
2023/08/18 03:45:51;;;;;;;;;;;23.60;99.90;;;;;;4589824;19;20316;-60
2023/08/18 03:47:24;;;;;;;;;;;23.60;99.90;;;;;;4590559;19;19915;-61
2023/08/18 03:48:58;;;;;;;;;;;23.70;99.90;;;;;;4590647;19;19915;-60
2023/08/18 03:50:29;;;;;;;;;;;23.70;99.90;;;;;;4590549;19;19911;-61
2023/08/18 03:52:03;;;;;;;;;;;23.70;99.90;;;;;;4589316;19;19923;-61
2023/08/18 03:53:37;;;;;;;;;;;23.80;99.90;;;;;;4595004;19;20003;-60
2023/08/18 03:55:09;;;;;;;;;;;23.80;99.90;;;;;;4594989;19;19941;-60
2023/08/18 03:56:42;;;;;;;;;;;23.90;99.90;;;;;;4595079;19;19915;-60
2023/08/18 03:58:13;;;;;;;;;;;23.90;99.90;;;;;;4595556;19;19918;-60
2023/08/18 03:59:45;;;;;;;;;;;23.90;99.90;;;;;;4595513;19;19923;-60
2023/08/18 04:01:16;;;;;;;;;;;24.00;99.90;;;;;;4595305;19;19914;-61
2023/08/18 04:02:48;;;;;;;;;;;24.00;99.90;;;;;;4594253;19;20187;-60
2023/08/18 04:04:20;;;;;;;;;;;24.10;99.90;;;;;;4595341;19;20232;-61
2023/08/18 04:05:51;;;;;;;;;;;24.10;99.90;;;;;;4595357;19;19922;-60
2023/08/18 04:07:23;;;;;;;;;;;24.10;99.90;;;;;;4595348;19;19913;-61
2023/08/18 04:09:06;;;;;;;;;;;24.10;99.90;;;;;;4595292;19;20427;-60
2023/08/18 04:10:38;;;;;;;;;;;24.00;99.90;;;;;;4595529;19;19921;-60
2023/08/18 04:12:09;;;;;;;;;;;21.60;99.90;;;;;;4593877;19;19919;-60
2023/08/18 04:13:40;;;;;;;;;;;20.60;99.90;;;;;;4595335;19;19990;-61
2023/08/18 04:15:14;;;;;;;;;;;20.10;99.90;;;;;;4595346;19;20298;-60
2023/08/18 04:16:45;;;;;;;;;;;19.90;99.90;;;;;;4595626;19;20209;-60
2023/08/18 04:18:16;;;;;;;;;;;19.80;99.90;;;;;;4595190;19;19932;-60
2023/08/18 04:19:48;;;;;;;;;;;19.70;99.90;;;;;;4594997;19;19914;-60
2023/08/18 04:21:21;;;;;;;;;;;19.70;99.90;;;;;;4595056;19;19910;-60
2023/08/18 04:22:52;;;;;;;;;;;19.70;99.90;;;;;;4593442;19;19925;-60
2023/08/18 04:24:24;;;;;;;;;;;19.70;99.90;;;;;;4594995;19;20427;-60
2023/08/18 04:25:55;;;;;;;;;;;19.60;99.90;;;;;;4594869;19;19925;-59
2023/08/18 04:27:27;;;;;;;;;;;19.60;99.90;;;;;;4594823;19;19936;-60
2023/08/18 04:28:59;;;;;;;;;;;19.70;99.90;;;;;;4594785;19;19954;-61
2023/08/18 04:30:31;;;;;;;;;;;20.10;99.90;;;;;;4594838;19;20264;-60
2023/08/18 04:32:05;;;;;;;;;;;20.60;99.90;;;;;;4593292;19;19922;-60
2023/08/18 04:33:37;;;;;;;;;;;21.00;99.90;;;;;;4594759;19;19919;-60
2023/08/18 04:35:08;;;;;;;;;;;21.30;99.90;;;;;;4594848;19;20001;-60
2023/08/18 04:36:39;;;;;;;;;;;21.50;99.90;;;;;;4594791;19;19936;-60
2023/08/18 04:38:13;;;;;;;;;;;21.70;99.90;;;;;;4594643;19;20358;-60
2023/08/18 04:39:46;;;;;;;;;;;21.90;99.90;;;;;;4594744;19;19921;-60
2023/08/18 04:41:17;;;;;;;;;;;22.10;99.90;;;;;;4594507;19;19919;-60
2023/08/18 04:42:49;;;;;;;;;;;22.20;99.90;;;;;;4593276;19;20007;-60
2023/08/18 04:44:20;;;;;;;;;;;22.40;99.90;;;;;;4594579;19;19918;-60
2023/08/18 04:45:52;;;;;;;;;;;22.50;99.90;;;;;;4594785;19;19918;-60
2023/08/18 04:47:25;;;;;;;;;;;22.60;99.90;;;;;;4594685;19;19919;-60
2023/08/18 04:48:57;;;;;;;;;;;22.50;99.90;;;;;;4594681;19;19925;-60
2023/08/18 04:50:29;;;;;;;;;;;22.40;99.90;;;;;;4594205;19;19917;-60
2023/08/18 04:52:01;;;;;;;;;;;22.00;99.90;;;;;;4591909;19;20252;-60
2023/08/18 04:53:36;;;;;;;;;;;21.70;99.90;;;;;;4593647;19;19931;-60
2023/08/18 04:55:10;;;;;;;;;;;21.50;99.90;;;;;;4594524;19;19914;-60
2023/08/18 04:56:46;;;;;;;;;;;21.40;99.90;;;;;;4594377;19;19914;-60
2023/08/18 04:58:18;;;;;;;;;;;21.30;99.90;;;;;;4594430;19;20245;-60
2023/08/18 04:59:52;;;;;;;;;;;21.30;99.90;;;;;;4594919;19;19915;-60
2023/08/18 05:01:25;;;;;;;;;;;21.30;99.90;;;;;;4594677;19;19919;-60
2023/08/18 05:02:57;;;;;;;;;;;21.20;99.90;;;;;;4593388;19;19918;-60
2023/08/18 05:04:29;;;;;;;;;;;21.30;99.90;;;;;;4592532;19;19919;-60
2023/08/18 05:06:08;;;;;;;;;;;21.30;99.90;;;;;;4593572;19;19934;-60
2023/08/18 05:07:45;;;;;;;;;;;21.30;99.90;;;;;;4593054;19;19926;-60
2023/08/18 05:09:18;;;;;;;;;;;21.30;99.90;;;;;;4593339;19;20282;-60
2023/08/18 05:10:50;;;;;;;;;;;21.30;99.90;;;;;;4594667;19;19925;-60
2023/08/18 05:12:23;;;;;;;;;;;21.30;99.90;;;;;;4592673;19;19923;-60
2023/08/18 05:13:54;;;;;;;;;;;21.30;99.90;;;;;;4594165;19;19939;-60
2023/08/18 05:15:27;;;;;;;;;;;21.30;99.90;;;;;;4594182;19;19970;-60
2023/08/18 05:16:58;;;;;;;;;;;21.40;99.90;;;;;;4592914;19;19940;-60
2023/08/18 05:18:30;;;;;;;;;;;21.40;99.90;;;;;;4593751;19;19929;-60
2023/08/18 05:20:03;;;;;;;;;;;21.40;99.90;;;;;;4593974;19;20340;-60
2023/08/18 05:21:34;;;;;;;;;;;21.40;99.90;;;;;;4593871;19;20275;-60
2023/08/18 05:23:05;;;;;;;;;;;21.40;99.90;;;;;;4594018;19;19937;-60
2023/08/18 05:24:37;;;;;;;;;;;21.40;99.90;;;;;;4594037;19;20286;-60
2023/08/18 05:26:10;;;;;;;;;;;21.40;99.90;;;;;;4594010;19;19925;-60
2023/08/18 05:27:42;;;;;;;;;;;21.40;99.90;;;;;;4593856;19;19917;-60
2023/08/18 05:29:14;;;;;;;;;;;21.40;99.90;;;;;;4593705;19;19919;-60
2023/08/18 05:30:46;;;;;;;;;;;21.40;99.90;;;;;;4594082;19;19919;-60
2023/08/18 05:32:17;;;;;;;;;;;21.40;99.90;;;;;;4592356;19;19919;-60
2023/08/18 05:33:49;;;;;;;;;;;21.40;99.90;;;;;;4593933;19;20286;-60
2023/08/18 05:35:20;;;;;;;;;;;21.40;99.90;;;;;;4593924;19;19999;-60
2023/08/18 05:36:52;;;;;;;;;;;21.40;99.90;;;;;;4593669;19;20318;-60
2023/08/18 05:38:24;;;;;;;;;;;21.40;99.90;;;;;;4593646;19;19915;-60
2023/08/18 05:39:56;;;;;;;;;;;21.30;99.90;;;;;;4593488;19;19915;-60
2023/08/18 05:41:27;;;;;;;;;;;21.30;99.90;;;;;;4593553;19;19989;-60
2023/08/18 05:42:59;;;;;;;;;;;21.50;99.90;;;;;;4592052;19;19914;-60
2023/08/18 05:44:30;;;;;;;;;;;22.00;99.90;;;;;;4593231;19;19970;-60
2023/08/18 05:46:03;;;;;;;;;;;22.40;99.90;;;;;;4593363;19;19919;-60
2023/08/18 05:47:35;;;;;;;;;;;22.80;99.90;;;;;;4593196;19;20209;-60
2023/08/18 05:49:07;;;;;;;;;;;23.00;99.90;;;;;;4593120;19;19915;-60
2023/08/18 05:50:38;;;;;;;;;;;23.00;99.90;;;;;;4591737;19;20278;-60
2023/08/18 05:52:09;;;;;;;;;;;22.90;99.90;;;;;;4591906;19;20222;-60
2023/08/18 05:53:41;;;;;;;;;;;22.80;99.90;;;;;;4592972;19;19921;-60
2023/08/18 05:55:12;;;;;;;;;;;22.70;99.90;;;;;;4593023;19;20010;-61
2023/08/18 05:56:44;;;;;;;;;;;22.70;99.90;;;;;;4592743;19;19914;-60
2023/08/18 05:58:15;;;;;;;;;;;22.60;99.90;;;;;;4592872;19;20274;-60
2023/08/18 05:59:47;;;;;;;;;;;22.50;99.90;;;;;;4592876;19;19940;-60
2023/08/18 06:01:18;;;;;;;;;;;22.40;99.90;;;;;;4592750;19;19922;-60
2023/08/18 06:02:50;;;;;;;;;;;22.30;99.90;;;;;;4592016;19;19919;-60
2023/08/18 06:04:21;;;;;;;;;;;22.40;99.90;;;;;;4592746;19;19915;-60
2023/08/18 06:05:53;;;;;;;;;;;22.40;99.90;;;;;;4592837;19;19926;-60
2023/08/18 06:07:24;;;;;;;;;;;22.30;99.90;;;;;;4592811;19;19966;-60
2023/08/18 06:08:55;;;;;;;;;;;22.40;99.90;;;;;;4592705;19;19911;-60
2023/08/18 06:10:29;;;;;;;;;;;22.40;99.90;;;;;;4592634;19;19930;-60
2023/08/18 06:12:01;;;;;;;;;;;22.40;99.90;;;;;;4591836;19;19914;-60
2023/08/18 06:13:32;;;;;;;;;;;22.50;99.90;;;;;;4592590;19;19936;-60
2023/08/18 06:15:06;;;;;;;;;;;22.50;99.90;;;;;;4592619;19;19915;-60
2023/08/18 06:16:37;;;;;;;;;;;22.40;99.90;;;;;;4592572;19;19919;-60
2023/08/18 06:18:09;;;;;;;;;;;22.40;99.90;;;;;;4592628;19;19935;-60
2023/08/18 06:19:43;;;;;;;;;;;22.40;99.90;;;;;;4592562;19;19929;-60
2023/08/18 06:21:15;;;;;;;;;;;22.40;99.90;;;;;;4592519;19;20290;-60
2023/08/18 06:22:46;;;;;;;;;;;22.40;99.90;;;;;;4591471;19;19922;-60
2023/08/18 06:24:18;;;;;;;;;;;22.40;99.90;;;;;;4592396;19;19915;-60
2023/08/18 06:25:51;;;;;;;;;;;22.30;99.90;;;;;;4592382;19;19929;-60
2023/08/18 06:27:22;;;;;;;;;;;22.30;99.90;;;;;;4592491;19;19918;-60
2023/08/18 06:28:54;;;;;;;;;;;22.30;99.90;;;;;;4592386;19;19914;-60
2023/08/18 06:30:25;;;;;;;;;;;22.30;99.90;;;;;;4592415;19;20346;-60
2023/08/18 06:31:56;;;;;;;;;;;22.30;99.90;;;;;;4591214;19;19919;-60
2023/08/18 06:33:28;;;;;;;;;;;22.30;99.90;;;;;;4592893;19;20310;-60
2023/08/18 06:34:59;;;;;;;;;;;22.40;99.90;;;;;;4592173;19;19911;-60
2023/08/18 06:36:31;;;;;;;;;;;22.40;99.90;;;;;;4592208;19;19915;-60
2023/08/18 06:38:03;;;;;;;;;;;22.40;99.90;;;;;;4592228;19;19922;-60
2023/08/18 06:39:36;;;;;;;;;;;22.40;99.90;;;;;;4592282;19;19942;-61
2023/08/18 06:41:09;;;;;;;;;;;22.60;99.90;;;;;;4592251;19;19911;-61
2023/08/18 06:42:40;;;;;;;;;;;22.80;99.90;;;;;;4591328;19;19919;-61
2023/08/18 06:44:12;;;;;;;;;;;22.90;99.90;;;;;;4591946;19;19911;-61
2023/08/18 06:45:43;;;;;;;;;;;23.20;99.90;;;;;;4592445;19;20322;-61
2023/08/18 06:47:15;;;;;;;;;;;23.50;99.90;;;;;;4591178;19;19911;-61
2023/08/18 06:48:46;;;;;;;;;;;23.60;99.90;;;;;;4591775;19;19911;-61
2023/08/18 06:50:17;;;;;;;;;;;23.60;99.90;;;;;;4591902;19;19911;-61
2023/08/18 06:51:49;;;;;;;;;;;23.50;99.90;;;;;;4591154;19;19918;-61
2023/08/18 06:53:21;;;;;;;;;;;23.40;99.90;;;;;;4591939;19;20290;-61
2023/08/18 06:54:52;;;;;;;;;;;23.40;99.90;;;;;;4591938;19;19918;-61
2023/08/18 06:56:25;;;;;;;;;;;23.40;99.90;;;;;;4591824;19;19935;-61
2023/08/18 06:57:56;;;;;;;;;;;23.40;99.90;;;;;;4591634;19;19910;-61
2023/08/18 06:59:28;;;;;;;;;;;23.50;99.90;;;;;;4591804;19;19941;-61
2023/08/18 07:00:59;;;;;;;;;;;23.50;99.90;;;;;;4592126;19;19910;-61
2023/08/18 07:02:31;;;;;;;;;;;23.60;99.90;;;;;;4590973;19;19911;-62
2023/08/18 07:04:04;;;;;;;;;;;23.60;99.90;;;;;;4591652;19;19923;-61
2023/08/18 07:05:36;;;;;;;;;;;23.50;99.90;;;;;;4591690;19;19919;-61
2023/08/18 07:07:07;;;;;;;;;;;23.60;99.90;;;;;;4591693;19;19948;-61
2023/08/18 07:08:39;;;;;;;;;;;23.50;99.90;;;;;;4591665;19;19911;-61
2023/08/18 07:10:10;;;;;;;;;;;23.50;99.90;;;;;;4591606;19;19918;-61
2023/08/18 07:11:43;;;;;;;;;;;23.50;99.90;;;;;;4590892;19;19918;-61
2023/08/18 07:13:15;;;;;;;;;;;23.50;99.90;;;;;;4591638;19;19922;-61
2023/08/18 07:14:46;;;;;;;;;;;23.60;99.90;;;;;;4591596;19;20308;-61
2023/08/18 07:16:19;;;;;;;;;;;23.60;99.90;;;;;;4591580;19;19907;-61
2023/08/18 07:17:51;;;;;;;;;;;23.50;99.90;;;;;;4591673;19;19925;-61
2023/08/18 07:19:25;;;;;;;;;;;23.50;99.90;;;;;;4591501;19;19915;-61
2023/08/18 07:20:58;;;;;;;;;;;23.50;99.90;;;;;;4591477;19;19918;-61
2023/08/18 07:22:32;;;;;;;;;;;23.60;99.90;;;;;;4590554;19;19919;-61
2023/08/18 07:24:04;;;;;;;;;;;23.70;99.90;;;;;;4591452;19;19919;-61
2023/08/18 07:25:36;;;;;;;;;;;23.70;99.90;;;;;;4591400;19;19925;-61
2023/08/18 07:27:07;;;;;;;;;;;23.70;99.90;;;;;;4591371;19;19911;-61
2023/08/18 07:28:39;;;;;;;;;;;23.70;99.90;;;;;;4596142;19;19926;-61
2023/08/18 07:30:10;;;;;;;;;;;23.70;99.90;;;;;;4595944;19;19987;-61
2023/08/18 07:31:42;;;;;;;;;;;23.60;99.90;;;;;;4595069;19;19992;-63
2023/08/18 07:33:14;;;;;;;;;;;23.70;99.90;;;;;;4596299;19;20114;-61
2023/08/18 07:34:45;;;;;;;;;;;23.80;99.90;;;;;;4596035;19;19917;-61
2023/08/18 07:36:18;;;;;;;;;;;23.70;99.90;;;;;;4595821;19;19919;-62
2023/08/18 07:37:51;;;;;;;;;;;23.70;99.90;;;;;;4595840;19;19921;-62
2023/08/18 07:39:22;;;;;;;;;;;23.70;99.90;;;;;;4596051;19;19914;-61
2023/08/18 07:40:53;;;;;;;;;;;23.80;99.90;;;;;;4595867;19;20215;-61
2023/08/18 07:42:26;;;;;;;;;;;23.70;99.90;;;;;;4595165;19;19922;-61
2023/08/18 07:43:57;;;;;;;;;;;23.80;99.90;;;;;;4595741;19;20236;-61
2023/08/18 07:45:30;;;;;;;;;;;23.80;99.90;;;;;;4595719;19;19919;-61
2023/08/18 07:47:03;;;;;;;;;;;23.90;99.90;;;;;;4595732;19;19910;-61
2023/08/18 07:48:37;;;;;;;;;;;23.20;99.90;;;;;;4595735;19;19914;-60
2023/08/18 07:50:08;;;;;;;;;;;21.90;99.90;;;;;;4595644;19;19936;-61
2023/08/18 07:51:41;;;;;;;;;;;21.50;99.90;;;;;;4594746;19;20001;-61
2023/08/18 07:53:12;;;;;;;;;;;21.30;99.90;;;;;;4595574;19;19918;-61
2023/08/18 07:54:44;;;;;;;;;;;21.30;99.90;;;;;;4595514;19;19971;-61
2023/08/18 07:56:17;;;;;;;;;;;21.30;99.90;;;;;;4595500;19;19911;-61
2023/08/18 07:57:49;;;;;;;;;;;21.30;99.90;;;;;;4594707;19;20214;-61
2023/08/18 07:59:20;;;;;;;;;;;21.40;99.90;;;;;;4594414;19;19970;-60
2023/08/18 08:00:52;;;;;;;;;;;21.50;99.90;;;;;;4596801;19;20291;-60
2023/08/18 08:02:23;;;;;;;;;;;21.60;99.90;;;;;;4594219;19;19910;-60
2023/08/18 08:03:55;;;;;;;;;;;21.60;99.90;;;;;;4595228;19;19941;-60
2023/08/18 08:05:26;;;;;;;;;;;21.70;99.90;;;;;;4595175;19;19915;-60
2023/08/18 08:06:58;;;;;;;;;;;21.70;99.90;;;;;;4595351;19;19919;-60
2023/08/18 08:08:30;;;;;;;;;;;21.80;99.90;;;;;;4595109;19;19918;-60
2023/08/18 08:10:03;;;;;;;;;;;21.80;99.90;;;;;;4595211;19;19910;-60
2023/08/18 08:11:35;;;;;;;;;;;21.80;99.90;;;;;;4594633;19;19918;-60
2023/08/18 08:13:06;;;;;;;;;;;21.80;99.90;;;;;;4595031;19;19918;-60
2023/08/18 08:14:39;;;;;;;;;;;21.90;99.90;;;;;;4595023;19;19933;-60
2023/08/18 08:16:11;;;;;;;;;;;22.00;99.90;;;;;;4595184;19;20221;-60
2023/08/18 08:17:42;;;;;;;;;;;22.00;99.90;;;;;;4595075;19;19921;-60
2023/08/18 08:19:14;;;;;;;;;;;22.00;99.90;;;;;;4595228;19;20237;-60
2023/08/18 08:20:45;;;;;;;;;;;22.00;99.90;;;;;;4595358;19;19935;-60
2023/08/18 08:22:17;;;;;;;;;;;22.00;99.90;;;;;;4594310;19;20204;-60
2023/08/18 08:23:49;;;;;;;;;;;22.00;99.90;;;;;;4595019;19;19914;-60
2023/08/18 08:25:20;;;;;;;;;;;22.00;99.90;;;;;;4594957;19;19940;-60
2023/08/18 08:26:51;;;;;;;;;;;22.10;99.90;;;;;;4594883;19;19921;-60
2023/08/18 08:28:23;;;;;;;;;;;22.10;99.90;;;;;;4594862;19;19919;-60
2023/08/18 08:29:54;;;;;;;;;;;22.10;99.90;;;;;;4594855;19;20307;-59
2023/08/18 08:31:25;;;;;;;;;;;22.10;99.90;;;;;;4594210;19;19939;-61
2023/08/18 08:32:57;;;;;;;;;;;22.10;99.90;;;;;;4593310;19;19930;-61
2023/08/18 08:34:28;;;;;;;;;;;22.10;99.90;;;;;;4594495;19;19914;-61
2023/08/18 08:35:59;;;;;;;;;;;22.10;99.90;;;;;;4593171;19;19911;-61
2023/08/18 08:37:31;;;;;;;;;;;22.20;99.90;;;;;;4594113;19;20203;-61
2023/08/18 08:39:03;;;;;;;;;;;22.20;99.90;;;;;;4591001;19;19937;-61
2023/08/18 08:40:35;;;;;;;;;;;22.20;99.90;;;;;;4591477;19;19915;-61
2023/08/18 08:42:06;;;;;;;;;;;22.20;99.90;;;;;;4590928;19;19914;-60
2023/08/18 08:43:37;;;;;;;;;;;22.20;99.90;;;;;;4591418;19;19914;-61
2023/08/18 08:45:09;;;;;;;;;;;22.30;99.90;;;;;;4591750;19;19915;-60
2023/08/18 08:46:40;;;;;;;;;;;22.40;99.90;;;;;;4591596;19;20282;-60
2023/08/18 08:48:12;;;;;;;;;;;22.40;99.90;;;;;;4591386;19;19926;-60
2023/08/18 08:49:43;;;;;;;;;;;22.40;99.90;;;;;;4591621;19;19918;-60
2023/08/18 08:51:15;;;;;;;;;;;22.40;99.90;;;;;;4591356;19;20420;-60
2023/08/18 08:52:48;;;;;;;;;;;22.40;99.90;;;;;;4590088;19;19926;-60
2023/08/18 08:54:19;;;;;;;;;;;22.40;99.90;;;;;;4591561;19;19974;-60
2023/08/18 08:55:52;;;;;;;;;;;22.40;99.90;;;;;;4593965;19;19941;-61